• Join FlightAware (Why Join?)
  • Login
  • US Flag 
04:22PM EDT


 

Airport Tracker/Info


-or-


 

Live Flight TrackerFlight Track Log ✈ N798SR ✈ 13-Nov-2013 ✈ KCDK - KAPF

Flight Track Log - Related Links

Times and Time Zones

All times are in EST time to prevent confusion due to time zone crossing. See the N798SR flight status page for this flight to view local times or setup timezone preferences in your user account.

Time Position Orientation Groundspeed Altitude Reporting Facility
EST Latitude Longitude Course Direction KTS MPH feet Rate Location/Type
01:47PM 28.9889 -82.8261 163° South 151 174 4,000  Level Jacksonville Center
01:48PM 28.9347 -82.8072 163° South 162 186 4,800 660 Climbing Jacksonville Center
01:49PM 28.9011 -82.7953 163° South 166 191 5,400 360 Climbing Jacksonville Center
01:50PM 28.8594 -82.7836 166° South 157 181 5,600 60 Climbing Jacksonville Center
01:52PM 28.7500 -82.7667 172° South 182 209 5,700  Climbing Tampa TRACON
01:54PM 28.6926 -82.7858 196° South  Level FlightAware Approximate
02:01PM 28.4674 -82.6942 159° South  Level Estimated
02:02PM 28.4350 -82.6817 161° South  Level FlightAware Approximate
02:03PM 28.4027 -82.6692 161° South  Level FlightAware Approximate
02:04PM 28.3703 -82.6567 161° South  Level FlightAware Approximate
02:05PM 28.3380 -82.6442 161° South  Level FlightAware Approximate
02:06PM 28.3056 -82.6317 161° South  Level FlightAware Approximate
02:07PM 28.2733 -82.6193 161° South  Level FlightAware Approximate
02:08PM 28.2409 -82.6068 161° South  Level FlightAware Approximate
02:09PM 28.2086 -82.5943 161° South  Level FlightAware Approximate
02:10PM 28.1762 -82.5819 161° South  Level FlightAware Approximate
02:11PM 28.1439 -82.5695 161° South  Level FlightAware Approximate
02:12PM 28.1115 -82.5570 161° South  Level FlightAware Approximate
02:13PM 28.0791 -82.5446 161° South  Level FlightAware Approximate
02:14PM 28.0468 -82.5322 161° South  Level FlightAware Approximate
02:15PM 28.0144 -82.5198 161° South  Level FlightAware Approximate
02:16PM 27.9820 -82.5074 161° South  Level FlightAware Approximate
02:17PM 27.9497 -82.4950 161° South  Level FlightAware Approximate
02:18PM 27.9173 -82.4826 161° South  Level FlightAware Approximate
02:19PM 27.8850 -82.4702 161° South  Level FlightAware Approximate
02:20PM 27.8526 -82.4578 161° South  Level FlightAware Approximate
02:20PM 27.4167 -82.6833 161° South 174 200 5,600  Level Tampa TRACON
02:21PM 27.8202 -82.4454 161° South  Level FlightAware Approximate
02:21PM 27.3833 -82.6500 138° Southeast 171 197 5,600  Level Tampa TRACON
02:22PM 27.7878 -82.4331 161° South  Level FlightAware Approximate
02:22PM 27.3333 -82.6167 149° Southeast 169 194 5,600  Level Tampa TRACON
02:23PM 27.7555 -82.4207 161° South  Level FlightAware Approximate
02:23PM 27.3000 -82.6000 156° South 168 193 5,600  Level Tampa TRACON
02:24PM 27.7231 -82.4084 161° South  Level FlightAware Approximate
02:24PM 27.2667 -82.5667 138° Southeast 169 194 5,600  Level Tampa TRACON
02:25PM 27.6907 -82.3960 161° South  Level FlightAware Approximate
02:25PM 27.2167 -82.5333 149° Southeast 168 193 5,600  Level Tampa TRACON
02:26PM 27.1833 -82.5167 156° South 167 192 5,600 -60 Level Tampa TRACON
02:27PM 27.1500 -82.4833 138° Southeast 169 194 5,500 -300 Descending Tampa TRACON
02:28PM 27.1000 -82.4500 149° Southeast 180 207 5,000 -540 Descending Tampa TRACON
02:29PM 27.0667 -82.4167 138° Southeast 177 204 4,500 -540 Descending Tampa TRACON
02:30PM 27.0167 -82.4000 163° South 172 198 3,900 -600 Descending Tampa TRACON
02:32PM 27.0167 -82.3288 90° East  Level FlightAware Approximate
02:39PM 26.8749 -82.0677 161° South  Level FlightAware Approximate
02:40PM 26.8381 -82.0538 161° South  Level FlightAware Approximate
02:41PM 26.8012 -82.0400 162° South  Level FlightAware Approximate
02:42PM 26.7647 -82.0253 159° South  Level FlightAware Approximate
02:43PM 26.7284 -82.0098 159° South  Level FlightAware Approximate
02:44PM 26.6922 -81.9942 159° South  Level FlightAware Approximate
02:45PM 26.6559 -81.9787 159° South  Level FlightAware Approximate
02:46PM 26.6196 -81.9631 159° South  Level FlightAware Approximate
02:47PM 26.5833 -81.9476 159° South  Level FlightAware Approximate
02:48PM 26.5470 -81.9323 163° South  Level FlightAware Approximate
02:49PM 26.5098 -81.9199 163° South  Level FlightAware Approximate
02:50PM 26.4730 -81.9059 160° South  Level FlightAware Approximate
02:51PM 26.4364 -81.8912 160° South  Level FlightAware Approximate
02:52PM 26.4000 -81.8764 160° South  Level FlightAware Approximate
02:53PM 26.3636 -81.8612 160° South  Level FlightAware Approximate
02:54PM 26.3272 -81.8460 160° South  Level FlightAware Approximate
02:55PM 26.2908 -81.8308 160° South  Level FlightAware Approximate
02:56PM 26.2544 -81.8157 160° South  Level FlightAware Approximate
02:57PM 26.2180 -81.8006 160° South  Level FlightAware Approximate
02:58PM 26.1826 -81.7829 156° South  Level FlightAware Approximate
02:59PM 26.1500 -81.7667 156° South  Level FlightAware Approximate
03:00PM 26.1524 -81.7756 156° South  Level Estimated
03:01PM 26.1524 -81.7756 156° South  Level Estimated
03:02PM 26.1524 -81.7756 156° South  Level Estimated
03:03PM 26.1524 -81.7756 156° South  Level Estimated
03:04PM 26.1524 -81.7756 156° South  Level Estimated
03:05PM 26.1524 -81.7756 156° South  Level Estimated
03:06PM 26.1524 -81.7756 156° South  Level Estimated
03:07PM 26.1524 -81.7756 156° South  Level Estimated
03:08PM 26.1524 -81.7756 156° South  Level Estimated
03:09PM 26.1524 -81.7756 156° South  Level Estimated
03:10PM 26.1524 -81.7756 156° South  Level Estimated
03:11PM 26.1524 -81.7756 156° South  Level Estimated
03:12PM 26.1524 -81.7756 156° South  Level Estimated
03:13PM 26.1524 -81.7756 156° South  Level Estimated
03:14PM 26.1524 -81.7756 156° South  Level Estimated
03:15PM 26.1524 -81.7756 156° South  Level Estimated
03:16PM 26.1524 -81.7756 156° South  Level Estimated
03:17PM 26.1524 -81.7756 156° South  Level Estimated
03:18PM 26.1524 -81.7756 156° South  Level Estimated